Ana Sayfa
METAR-TAF:

METAR-TAF

Havaalanları :

Ankara Esenboğa Havalimanı

Ankara Esenboğa, Türkiye

Enlem: 40-07N, Boylam: 032-59E, yükseklik: 953 m

Güncel hava durumu gözlemi

Rapor saat 22:20 UTC de 25 dakika önce yapıldı.
Rüzgar değişken yönden 2 kt
Sıcaklık 4°C
Nem 75%
Basınç 1018 hPa
Görüş mesafesi 10 km veya daha fazla
1500 m altında bulut yok ve kümülonimbus yok

METAR: LTAC 192220Z VRB02KT CAVOK 04/00 Q1018 NOSIG RMK RWY21L 00000KT RWY03L VRB01KT RWY21R 04004KT

Saat: 01:45 (22:45 UTC)

Tahmin

Rapor saat 16:40 UTC de 6 saat ve 5 dakika önce yapıldı.
Ayın 19'si saat 18 UTC'den ayın 20'si saat 18 UTC'ye kadar geçerli Tahmin
Rüzgar kuzeydan 8 kt
Görüş mesafesi 10 km veya daha fazla
1500 m altında bulut yok ve kümülonimbus yok

TAF: LTAC 191640Z 1918/2018 35008KT CAVOK

4.000'den fazla havaalanı için hava durumu gözlemleri ve tahminleri (METAR ve TAF raporları).

Kullanılabilir istasyonlar harita üzerinde sarı ve kırmızı noktalarla gösterilir.

İstasyonun adını görmek için fareyi noktanın üzerinde gezdirin.

Sonrasında hava gözlem ve tahminlerini görmek için tıklayın.

Haritayı değiştirmek için: yaklaştırmak için siyah artı işaretli yeşil düğmeye ve uzaklaştırmak için de eksi işaretli düğmeye hızla tıklayın; bitişik haritalar için yeşil okları kullanın.


METAR-TAF: